Time;durP1;ratioP1;P1;durP2;ratioP2;P2;SDS_P1;SDS_P2;PMS_P1;PMS_P2;Temp;Humidity;BMP_temperature;BMP_pressure;BME280_temperature;BME280_humidity;BME280_pressure;Samples;Min_cycle;Max_cycle;Signal;HPM_P1;HPM_P2
2023/10/03 00:01:51;;;;;;;41.57;4.43;;;12.50;99.90;;;;;;1917659;73;25259;-90
2023/10/03 00:04:40;;;;;;;24.50;4.13;;;12.50;99.90;;;;;;1935610;73;25178;-89
2023/10/03 00:07:28;;;;;;;28.83;4.40;;;12.50;99.90;;;;;;1933576;73;25190;-89
2023/10/03 00:10:17;;;;;;;22.53;4.10;;;12.40;99.90;;;;;;1917430;73;25240;-89
2023/10/03 00:13:07;;;;;;;29.70;4.83;;;12.40;99.90;;;;;;1918320;73;25700;-89
2023/10/03 00:15:57;;;;;;;33.70;4.83;;;12.50;99.90;;;;;;1893067;75;25657;-89
2023/10/03 00:18:46;;;;;;;29.40;4.40;;;12.50;99.90;;;;;;1918353;73;25158;-89
2023/10/03 00:49:41;;;;;;;21.70;3.90;;;12.50;99.90;;;;;;1942593;72;26966;-90
2023/10/03 00:52:31;;;;;;;28.30;3.50;;;12.50;99.90;;;;;;1931564;72;25306;-89
2023/10/03 00:55:19;;;;;;;18.10;3.63;;;12.40;99.90;;;;;;1940630;72;25224;-89
2023/10/03 00:58:19;;;;;;;28.17;4.17;;;12.40;99.90;;;;;;1937762;72;25215;-89
2023/10/03 01:01:03;;;;;;;30.70;5.07;;;12.40;99.90;;;;;;1926242;72;25296;-89
2023/10/03 01:03:52;;;;;;;33.20;6.40;;;12.40;99.90;;;;;;1928782;72;25222;-89
2023/10/03 01:06:40;;;;;;;25.13;5.27;;;12.30;99.90;;;;;;1938362;73;25193;-89
2023/10/03 01:09:33;;;;;;;32.73;7.63;;;12.30;99.90;;;;;;1926738;72;25238;-89
2023/10/03 01:12:21;;;;;;;29.50;8.80;;;12.30;99.90;;;;;;1927020;73;25277;-90
2023/10/03 01:18:09;;;;;;;38.03;10.97;;;12.40;99.90;;;;;;1946238;72;27667;-89
2023/10/03 01:21:00;;;;;;;33.93;11.37;;;12.40;99.90;;;;;;1926392;73;25320;-89
2023/10/03 01:23:46;;;;;;;41.07;14.57;;;12.50;99.90;;;;;;1927017;73;25213;-89
2023/10/03 01:26:35;;;;;;;45.43;14.20;;;12.40;99.90;;;;;;1920570;73;25560;-89
2023/10/03 01:29:23;;;;;;;36.43;12.67;;;12.40;99.90;;;;;;1914016;73;25229;-89
2023/10/03 01:32:12;;;;;;;47.57;15.33;;;12.40;99.90;;;;;;1918105;73;25213;-89
2023/10/03 01:37:55;;;;;;;47.47;14.90;;;12.20;99.90;;;;;;1947712;72;27144;-89
2023/10/03 01:40:44;;;;;;;33.07;12.23;;;12.20;99.90;;;;;;1922020;73;25332;-89
2023/10/03 01:43:33;;;;;;;32.73;9.90;;;12.30;99.90;;;;;;1919724;73;25316;-89
2023/10/03 01:46:22;;;;;;;17.60;5.50;;;12.20;99.90;;;;;;1926826;73;25690;-89
2023/10/03 01:49:10;;;;;;;16.43;3.13;;;12.20;99.90;;;;;;1879521;75;25289;-89
2023/10/03 01:54:56;;;;;;;20.10;3.40;;;12.20;99.90;;;;;;1937979;72;27158;-89
2023/10/03 01:57:45;;;;;;;10.93;3.23;;;12.20;99.90;;;;;;1918885;73;25266;-89
2023/10/03 02:00:35;;;;;;;13.73;3.37;;;12.20;99.90;;;;;;1922894;73;25261;-90
2023/10/03 02:03:23;;;;;;;18.60;3.40;;;12.20;99.90;;;;;;1918539;73;25657;-89
2023/10/03 02:08:59;;;;;;;9.93;3.27;;;12.30;99.90;;;;;;1954078;72;26972;-89
2023/10/03 02:11:48;;;;;;;15.57;3.37;;;12.30;99.90;;;;;;1919426;72;25326;-89
2023/10/03 02:14:39;;;;;;;11.57;2.63;;;12.30;99.90;;;;;;1932738;73;25275;-89
2023/10/03 03:13:32;;;;;;;9.37;2.40;;;12.30;99.90;;;;;;1943843;72;27474;-89
2023/10/03 03:19:05;;;;;;;15.80;2.53;;;12.10;99.90;;;;;;1903812;74;27689;-89
2023/10/03 03:21:57;;;;;;;17.10;2.70;;;12.00;99.90;;;;;;1868961;76;25300;-89
2023/10/03 03:24:51;;;;;;;14.83;2.80;;;12.10;99.90;;;;;;1863919;76;25864;-89
2023/10/03 03:30:33;;;;;;;17.03;2.80;;;12.00;99.90;;;;;;1901469;74;27887;-89
2023/10/03 03:33:19;;;;;;;12.77;2.83;;;12.10;99.90;;;;;;1862193;76;25314;-89
2023/10/03 03:36:04;;;;;;;15.70;3.00;;;12.10;99.90;;;;;;1866107;76;25722;-89
2023/10/03 03:38:54;;;;;;;17.03;2.90;;;12.10;99.90;;;;;;1865775;76;25370;-89
2023/10/03 03:41:44;;;;;;;11.90;2.60;;;12.00;99.90;;;;;;1865583;75;26600;-89
2023/10/03 03:44:33;;;;;;;15.23;3.00;;;12.10;99.90;;;;;;1876826;75;25295;-89
2023/10/03 03:47:22;;;;;;;22.37;2.77;;;12.10;99.90;;;;;;1878668;75;25285;-90
2023/10/03 03:50:10;;;;;;;11.80;2.30;;;12.10;99.90;;;;;;1889770;75;25264;-89
2023/10/03 03:52:59;;;;;;;10.80;2.03;;;12.10;99.90;;;;;;1883656;75;25221;-89
2023/10/03 04:08:52;;;;;;;12.53;2.37;;;12.10;99.90;;;;;;1845130;76;27568;-88
2023/10/03 04:14:27;;;;;;;13.17;2.60;;;12.10;99.90;;;;;;1980646;71;27087;-89
2023/10/03 04:17:16;;;;;;;18.70;3.37;;;12.10;99.90;;;;;;1935067;73;25194;-89
2023/10/03 04:20:13;;;;;;;16.80;2.47;;;12.10;99.90;;;;;;1919357;73;25293;-89
2023/10/03 04:22:58;;;;;;;16.83;2.50;;;12.00;99.90;;;;;;1940241;72;25209;-89
2023/10/03 04:25:47;;;;;;;16.57;2.70;;;12.10;99.90;;;;;;1911364;72;25798;-89
2023/10/03 04:28:35;;;;;;;11.87;2.40;;;12.10;99.90;;;;;;1934520;73;25268;-89
2023/10/03 04:31:24;;;;;;;14.93;2.57;;;12.10;99.90;;;;;;1923834;73;25285;-89
2023/10/03 04:34:16;;;;;;;16.03;2.40;;;12.10;99.90;;;;;;1929654;73;25554;-89
2023/10/03 04:39:50;;;;;;;15.83;2.70;;;12.20;99.90;;;;;;1944531;72;27083;-89
2023/10/03 04:42:40;;;;;;;16.93;2.80;;;12.20;99.90;;;;;;1910263;73;25394;-89
2023/10/03 04:45:29;;;;;;;15.83;2.50;;;12.20;99.90;;;;;;1887133;75;26426;-89
2023/10/03 04:48:18;;;;;;;22.50;2.70;;;12.10;99.90;;;;;;1893185;75;25743;-89
2023/10/03 04:51:05;;;;;;;11.30;2.33;;;12.20;99.90;;;;;;1888769;75;26397;-89
2023/10/03 05:06:59;;;;;;;11.40;2.33;;;12.10;99.90;;;;;;1837592;77;27696;-89
2023/10/03 05:12:39;;;;;;;19.63;2.77;;;12.20;99.90;;;;;;1943533;72;27365;-91
2023/10/03 05:31:40;;;;;;;13.93;2.50;;;12.20;99.90;;;;;;1908953;72;27109;-90
2023/10/03 05:34:27;;;;;;;17.50;2.40;;;12.20;99.90;;;;;;1905419;73;25260;-89
2023/10/03 05:37:16;;;;;;;16.30;2.90;;;12.20;99.90;;;;;;1912553;75;25375;-89
2023/10/03 05:40:12;;;;;;;18.40;2.77;;;12.30;99.90;;;;;;1909352;75;25354;-90
2023/10/03 05:45:49;;;;;;;17.87;2.77;;;12.20;99.90;;;;;;1940479;72;28328;-89
2023/10/03 05:48:38;;;;;;;20.60;2.53;;;12.20;99.90;;;;;;1937003;73;25275;-90
2023/10/03 05:51:26;;;;;;;14.83;2.80;;;12.20;99.90;;;;;;1913712;73;25732;-90
2023/10/03 05:54:15;;;;;;;18.07;2.73;;;12.30;99.90;;;;;;1928046;73;25219;-90
2023/10/03 05:57:04;;;;;;;14.00;2.50;;;12.20;99.90;;;;;;1916868;73;25241;-89
2023/10/03 06:02:47;;;;;;;24.90;3.30;;;12.30;99.90;;;;;;1950080;72;27083;-90
2023/10/03 06:05:35;;;;;;;12.20;2.23;;;12.30;99.90;;;;;;1929902;73;25605;-89
2023/10/03 06:08:24;;;;;;;17.40;2.73;;;12.30;99.90;;;;;;1936384;73;25336;-89
2023/10/03 06:11:13;;;;;;;18.43;2.90;;;12.40;99.90;;;;;;1925011;73;25206;-89
2023/10/03 06:14:03;;;;;;;20.70;3.20;;;12.30;99.90;;;;;;1932125;73;25366;-89
2023/10/03 06:16:52;;;;;;;18.70;2.70;;;12.40;99.90;;;;;;1923427;73;25230;-89
2023/10/03 06:19:41;;;;;;;18.70;3.10;;;12.50;99.90;;;;;;1932493;73;25250;-89
2023/10/03 06:35:56;;;;;;;24.90;3.33;;;12.50;99.90;;;;;;1877882;75;27054;-89
2023/10/03 06:41:29;;;;;;;23.00;3.07;;;12.60;99.90;;;;;;1935822;72;27137;-89
2023/10/03 06:44:17;;;;;;;17.97;2.57;;;12.60;99.90;;;;;;1884180;75;25213;-89
2023/10/03 06:49:59;;;;;;;22.00;2.97;;;12.70;99.90;;;;;;1962446;71;27986;-89
2023/10/03 06:52:48;;;;;;;21.73;2.93;;;12.70;99.90;;;;;;1880371;75;25279;-89
2023/10/03 07:09:07;;;;;;;23.33;3.20;;;12.70;99.90;;;;;;2065450;68;27549;-89
2023/10/03 07:11:55;;;;;;;21.17;3.20;;;12.80;99.90;;;;;;2020097;69;25210;-89
2023/10/03 07:14:46;;;;;;;16.07;2.80;;;12.80;99.90;;;;;;2021714;70;25243;-89
2023/10/03 07:17:35;;;;;;;16.60;2.53;;;12.90;99.90;;;;;;2013575;70;25655;-89
2023/10/03 07:20:23;;;;;;;22.67;2.63;;;12.90;99.90;;;;;;2016366;70;25246;-89
2023/10/03 07:23:12;;;;;;;23.83;2.70;;;12.80;99.90;;;;;;2033804;70;25255;-90
2023/10/03 07:26:01;;;;;;;20.50;2.90;;;12.90;99.90;;;;;;2017180;70;25714;-90
2023/10/03 07:28:49;;;;;;;19.10;2.80;;;12.90;99.90;;;;;;2015287;70;25338;-90
2023/10/03 07:31:38;;;;;;;18.80;3.20;;;12.90;99.90;;;;;;2019875;70;25291;-90
2023/10/03 07:34:26;;;;;;;14.57;2.50;;;13.00;99.90;;;;;;2016878;70;25277;-90
2023/10/03 07:39:57;;;;;;;17.77;2.47;;;13.00;99.90;;;;;;1939996;72;26944;-89
2023/10/03 07:42:45;;;;;;;19.47;2.87;;;12.90;99.90;;;;;;1930270;73;25895;-89
2023/10/03 07:45:36;;;;;;;22.60;2.83;;;13.00;99.90;;;;;;1926870;73;25267;-89
2023/10/03 07:48:24;;;;;;;24.93;3.40;;;13.00;99.90;;;;;;1944569;73;25293;-89
2023/10/03 07:51:17;;;;;;;18.67;2.70;;;13.00;99.90;;;;;;1915323;73;25309;-89
2023/10/03 07:54:06;;;;;;;15.17;3.20;;;13.00;99.90;;;;;;1944887;73;25256;-89
2023/10/03 07:56:55;;;;;;;19.10;3.10;;;13.00;99.90;;;;;;1933764;73;25261;-88
2023/10/03 08:02:32;;;;;;;14.70;3.40;;;13.10;99.90;;;;;;1890383;74;27680;-89
2023/10/03 08:05:17;;;;;;;25.10;3.10;;;13.00;99.90;;;;;;1856117;77;25351;-89
2023/10/03 08:08:07;;;;;;;20.87;3.27;;;13.00;99.90;;;;;;1861315;77;25242;-89
2023/10/03 08:10:58;;;;;;;23.13;3.60;;;13.00;99.90;;;;;;1866842;76;25787;-89
2023/10/03 08:13:46;;;;;;;16.83;2.90;;;12.90;99.90;;;;;;1859429;76;25284;-89
2023/10/03 08:16:35;;;;;;;18.77;3.30;;;13.00;99.90;;;;;;1857142;76;25280;-89
2023/10/03 08:19:25;;;;;;;17.87;3.10;;;13.00;99.90;;;;;;1863435;76;25951;-89
2023/10/03 08:25:28;;;;;;;17.70;2.80;;;13.10;99.90;;;;;;1974335;71;28233;-89
2023/10/03 08:31:06;;;;;;;13.50;3.00;;;13.20;99.90;;;;;;1946979;72;27017;-89
2023/10/03 08:33:55;;;;;;;20.00;3.27;;;13.20;99.90;;;;;;1935899;74;26555;-89
2023/10/03 08:36:44;;;;;;;22.30;3.20;;;13.20;99.90;;;;;;1941329;72;25280;-89
2023/10/03 08:39:33;;;;;;;21.07;2.87;;;13.20;99.90;;;;;;1919571;73;25751;-89
2023/10/03 08:45:17;;;;;;;14.43;2.90;;;13.30;99.90;;;;;;1939857;72;27063;-89
2023/10/03 08:48:07;;;;;;;18.43;3.10;;;13.30;99.90;;;;;;1930804;73;25237;-89
2023/10/03 08:53:47;;;;;;;16.43;3.00;;;13.40;99.90;;;;;;1923045;73;27967;-88
2023/10/03 08:56:35;;;;;;;16.03;3.03;;;13.40;99.90;;;;;;1909481;74;25297;-91
2023/10/03 08:59:30;;;;;;;17.03;2.73;;;13.30;99.90;;;;;;1895298;74;25227;-91
2023/10/03 09:02:24;;;;;;;11.63;2.40;;;13.10;99.90;;;;;;1856584;75;25299;-91
2023/10/03 09:05:15;;;;;;;11.57;2.00;;;12.90;99.90;;;;;;1907280;74;25285;-90
2023/10/03 09:08:00;;;;;;;7.67;2.20;;;12.50;99.90;;;;;;1909284;74;25250;-90
2023/10/03 09:13:40;;;;;;;4.97;1.70;;;12.10;99.90;;;;;;1960440;72;27488;-89
2023/10/03 09:19:24;;;;;;;4.17;1.80;;;12.10;99.90;;;;;;1950028;72;27449;-89
2023/10/03 09:22:15;;;;;;;6.10;1.50;;;12.00;99.90;;;;;;1928582;72;25228;-89
2023/10/03 09:25:07;;;;;;;4.97;1.70;;;11.90;99.90;;;;;;1940354;73;25203;-89
2023/10/03 09:27:59;;;;;;;4.03;1.60;;;11.90;99.90;;;;;;1916172;73;25296;-89
2023/10/03 09:30:46;;;;;;;5.47;1.70;;;12.00;99.90;;;;;;1945480;73;25382;-89
2023/10/03 09:33:38;;;;;;;4.37;1.60;;;12.00;99.90;;;;;;1922717;73;25885;-90
2023/10/03 09:49:58;;;;;;;3.67;2.00;;;11.90;99.90;;;;;;1892515;73;27532;-89
2023/10/03 09:56:00;;;;;;;7.03;1.60;;;11.70;99.90;;;;;;2003266;69;26316;-89
2023/10/03 09:58:48;;;;;;;3.67;1.53;;;11.70;99.90;;;;;;1908376;74;25320;-89
2023/10/03 10:04:51;;;;;;;4.07;1.70;;;11.80;99.90;;;;;;1819452;77;26842;-90
2023/10/03 10:10:26;;;;;;;3.43;1.67;;;11.70;99.90;;;;;;1955644;72;27873;-90
2023/10/03 10:13:21;;;;;;;6.83;1.90;;;11.70;99.90;;;;;;1928391;73;25308;-89
2023/10/03 10:16:16;;;;;;;4.40;1.50;;;11.60;99.90;;;;;;1920525;73;25222;-90
2023/10/03 10:19:04;;;;;;;7.40;1.40;;;11.60;99.90;;;;;;1932384;72;25308;-90
2023/10/03 10:21:59;;;;;;;4.53;1.60;;;11.60;99.90;;;;;;1923804;72;25294;-90
2023/10/03 10:24:46;;;;;;;5.33;1.60;;;11.60;99.90;;;;;;1924773;73;26119;-90
2023/10/03 10:27:36;;;;;;;4.57;1.80;;;11.70;99.90;;;;;;1929016;72;25244;-90
2023/10/03 10:30:25;;;;;;;3.93;1.50;;;11.60;99.90;;;;;;1936177;73;25357;-90
2023/10/03 10:33:27;;;;;;;4.27;1.60;;;11.60;99.90;;;;;;1923256;73;25331;-90
2023/10/03 10:39:03;;;;;;;5.33;1.77;;;11.60;99.90;;;;;;1933285;72;27538;-89
2023/10/03 10:42:10;;;;;;;5.13;1.50;;;11.60;99.90;;;;;;1900520;75;25318;-89
2023/10/03 10:45:20;;;;;;;3.50;1.37;;;11.60;99.90;;;;;;1905631;75;25239;-89
2023/10/03 10:48:11;;;;;;;4.47;1.93;;;11.70;99.90;;;;;;1909525;74;25322;-89
2023/10/03 10:51:12;;;;;;;8.83;1.77;;;11.70;99.90;;;;;;1912958;73;25246;-89
2023/10/03 10:54:04;;;;;;;9.07;1.77;;;11.80;99.90;;;;;;1893343;74;25288;-89
2023/10/03 11:13:49;;;;;;;7.27;1.60;;;12.20;99.90;;;;;;1970281;72;26985;-90
2023/10/03 11:16:39;;;;;;;6.90;1.77;;;12.20;99.90;;;;;;1933063;72;25258;-90
2023/10/03 11:19:30;;;;;;;6.17;1.60;;;12.30;99.90;;;;;;1945768;72;25225;-90
2023/10/03 11:22:18;;;;;;;6.20;1.87;;;12.50;99.90;;;;;;1914616;72;25202;-90
2023/10/03 11:25:12;;;;;;;5.97;1.70;;;12.50;99.90;;;;;;1936325;73;25209;-90
2023/10/03 11:28:09;;;;;;;3.00;1.40;;;12.60;99.90;;;;;;1916862;72;25691;-90
2023/10/03 11:31:03;;;;;;;5.43;1.50;;;12.80;99.90;;;;;;1926713;73;25328;-90
2023/10/03 11:33:52;;;;;;;4.60;1.50;;;13.00;99.90;;;;;;1921619;72;26144;-90
2023/10/03 11:36:45;;;;;;;5.13;1.53;;;13.00;99.90;;;;;;1928729;73;25814;-90
2023/10/03 11:39:39;;;;;;;6.67;1.77;;;13.10;99.90;;;;;;1930625;73;25271;-90
2023/10/03 11:42:28;;;;;;;4.97;1.87;;;13.10;99.90;;;;;;1914456;73;25257;-89
2023/10/03 11:45:19;;;;;;;4.33;1.87;;;13.10;99.90;;;;;;1913474;74;25277;-90
2023/10/03 11:48:10;;;;;;;4.37;1.73;;;13.20;99.90;;;;;;1897999;74;25223;-90
2023/10/03 11:50:58;;;;;;;4.10;1.87;;;13.10;99.90;;;;;;1913037;73;25293;-90
2023/10/03 11:53:46;;;;;;;5.30;1.80;;;13.10;99.90;;;;;;1909468;73;25283;-90
2023/10/03 11:56:42;;;;;;;7.53;1.53;;;13.10;99.90;;;;;;1898544;73;25331;-90
2023/10/03 11:59:30;;;;;;;7.67;1.70;;;13.30;99.90;;;;;;1905555;74;25203;-90
2023/10/03 12:05:04;;;;;;;3.83;1.50;;;13.50;99.90;;;;;;1931434;72;27126;-90
2023/10/03 12:10:41;;;;;;;3.13;1.33;;;13.30;99.90;;;;;;1948924;72;26951;-89
2023/10/03 12:13:29;;;;;;;6.27;2.17;;;13.40;99.90;;;;;;1936151;73;25700;-90
2023/10/03 12:16:18;;;;;;;2.57;1.60;;;13.60;99.90;;;;;;1924033;73;25250;-90
2023/10/03 12:19:07;;;;;;;2.50;1.40;;;13.50;99.90;;;;;;1925123;73;25219;-90
2023/10/03 12:21:55;;;;;;;4.00;1.40;;;13.50;99.90;;;;;;1900635;75;25204;-89
2023/10/03 12:24:44;;;;;;;3.50;1.30;;;13.30;99.90;;;;;;1906593;74;25877;-90
2023/10/03 12:27:33;;;;;;;5.13;1.63;;;13.20;99.90;;;;;;1880165;75;25304;-90
2023/10/03 12:30:22;;;;;;;4.40;1.50;;;13.30;99.90;;;;;;1896512;75;25622;-90
2023/10/03 12:33:16;;;;;;;6.20;1.70;;;13.20;99.90;;;;;;1888811;75;25231;-90
2023/10/03 12:36:03;;;;;;;4.37;1.60;;;13.30;99.90;;;;;;1897904;75;25241;-90
2023/10/03 12:38:53;;;;;;;2.20;1.40;;;13.30;99.90;;;;;;1881967;75;25694;-90
2023/10/03 12:55:10;;;;;;;3.93;1.47;;;13.50;99.90;;;;;;1932221;72;27873;-90
2023/10/03 12:58:00;;;;;;;4.57;1.50;;;13.50;99.90;;;;;;1897437;74;25245;-90
2023/10/03 13:00:49;;;;;;;3.77;1.50;;;13.40;99.90;;;;;;1973586;71;25786;-90
2023/10/03 13:06:25;;;;;;;6.37;1.33;;;13.40;99.90;;;;;;1941681;72;28258;-90
2023/10/03 13:09:14;;;;;;;4.73;1.70;;;13.30;99.90;;;;;;1930323;73;25253;-89
2023/10/03 13:12:03;;;;;;;4.00;1.43;;;13.20;99.90;;;;;;1914273;73;25211;-90
2023/10/03 13:14:52;;;;;;;3.67;1.50;;;13.20;99.90;;;;;;1920057;73;25310;-89
2023/10/03 13:17:42;;;;;;;4.40;1.60;;;13.10;99.90;;;;;;1920578;73;25669;-89
2023/10/03 13:20:31;;;;;;;3.37;1.63;;;12.90;99.90;;;;;;1921333;73;25726;-89
2023/10/03 13:23:19;;;;;;;4.87;1.77;;;13.00;99.90;;;;;;1923442;73;25353;-89
2023/10/03 13:29:02;;;;;;;3.97;1.87;;;13.20;99.90;;;;;;1941208;72;26973;-89
2023/10/03 13:31:52;;;;;;;4.17;1.80;;;13.20;99.90;;;;;;1911381;73;25263;-88
2023/10/03 13:34:41;;;;;;;4.50;1.90;;;13.20;99.90;;;;;;1939120;73;25314;-89
2023/10/03 13:37:30;;;;;;;7.33;2.27;;;13.20;99.90;;;;;;1927698;72;25244;-89
2023/10/03 13:40:19;;;;;;;6.67;2.50;;;13.20;99.90;;;;;;1926063;72;25799;-90
2023/10/03 13:43:08;;;;;;;7.07;2.07;;;13.20;99.90;;;;;;1915602;73;25285;-89
2023/10/03 13:45:56;;;;;;;5.53;2.00;;;13.20;99.90;;;;;;1913996;73;25806;-89
2023/10/03 13:48:44;;;;;;;6.50;2.50;;;13.20;99.90;;;;;;1927510;73;25869;-89
2023/10/03 13:51:33;;;;;;;6.83;2.00;;;13.30;99.90;;;;;;1911907;73;25215;-89
2023/10/03 13:54:21;;;;;;;5.73;1.90;;;13.30;99.90;;;;;;1919133;73;25317;-89
2023/10/03 13:57:11;;;;;;;5.43;1.70;;;13.20;99.90;;;;;;1914591;73;26310;-89
2023/10/03 14:00:00;;;;;;;10.03;2.07;;;13.20;99.90;;;;;;1918058;73;25489;-89
2023/10/03 14:05:34;;;;;;;6.60;2.23;;;13.20;99.90;;;;;;1939227;72;27642;-89
2023/10/03 14:22:51;;;;;;;5.97;2.30;;;13.10;99.90;;;;;;1947264;72;27536;-89
2023/10/03 14:25:40;;;;;;;6.93;2.50;;;13.30;99.90;;;;;;1901920;73;25340;-89
2023/10/03 14:31:14;;;;;;;5.60;2.20;;;13.40;99.90;;;;;;1943743;72;27081;-89
2023/10/03 14:34:03;;;;;;;6.33;1.93;;;13.40;99.90;;;;;;1920462;73;25735;-90
2023/10/03 14:36:52;;;;;;;9.37;2.10;;;13.30;99.90;;;;;;1925815;73;25279;-89
2023/10/03 14:39:41;;;;;;;4.47;1.77;;;13.20;99.90;;;;;;1935265;73;25708;-89
2023/10/03 14:42:29;;;;;;;8.17;2.00;;;13.20;99.90;;;;;;1916317;73;25356;-89
2023/10/03 14:45:19;;;;;;;5.40;2.17;;;13.20;99.90;;;;;;1895051;74;26211;-89
2023/10/03 14:48:08;;;;;;;3.90;1.70;;;13.20;99.90;;;;;;1898372;74;25211;-89
2023/10/03 14:50:57;;;;;;;8.80;2.20;;;13.20;99.90;;;;;;1920156;74;25297;-89
2023/10/03 14:53:50;;;;;;;6.90;1.90;;;13.10;99.90;;;;;;1905579;74;25275;-89
2023/10/03 14:59:24;;;;;;;3.17;1.43;;;13.00;99.90;;;;;;1963214;71;27099;-89
2023/10/03 15:02:11;;;;;;;3.87;1.60;;;12.90;99.90;;;;;;1908319;73;25206;-91
2023/10/03 15:05:00;;;;;;;5.90;1.83;;;12.90;99.90;;;;;;1908626;73;26358;-91
2023/10/03 15:07:49;;;;;;;4.13;1.63;;;12.80;99.90;;;;;;1904482;73;25244;-91
2023/10/03 15:10:38;;;;;;;3.13;1.70;;;12.70;99.90;;;;;;1914367;75;25312;-93
2023/10/03 15:13:28;;;;;;;4.40;1.60;;;12.60;99.90;;;;;;1915720;75;25219;-92
2023/10/03 15:16:17;;;;;;;8.57;2.00;;;12.60;99.90;;;;;;1916213;74;25311;-93
2023/10/03 15:19:06;;;;;;;7.23;2.10;;;12.50;99.90;;;;;;1911829;74;25227;-93
2023/10/03 15:21:56;;;;;;;4.33;1.90;;;12.40;99.90;;;;;;1903032;75;25289;-92
2023/10/03 15:24:44;;;;;;;7.47;2.17;;;12.50;99.90;;;;;;1907724;74;25286;-92
2023/10/03 15:27:33;;;;;;;8.47;2.07;;;12.50;99.90;;;;;;1902527;75;25193;-93
2023/10/03 15:30:22;;;;;;;5.00;1.70;;;12.60;99.90;;;;;;1912996;74;26163;-93
2023/10/03 15:33:10;;;;;;;10.40;1.97;;;12.50;99.90;;;;;;1915108;75;25206;-92
2023/10/03 15:36:00;;;;;;;4.50;2.07;;;12.50;99.90;;;;;;1915257;75;25237;-92
2023/10/03 16:06:22;;;;;;;5.23;1.90;;;12.30;99.90;;;;;;1925362;74;26824;-91
2023/10/03 16:52:47;;;;;;;6.67;2.10;;;11.80;99.90;;;;;;1945331;71;26995;-91
2023/10/03 16:55:36;;;;;;;4.73;1.97;;;11.80;99.90;;;;;;1885997;75;25194;-91
2023/10/03 16:58:24;;;;;;;5.17;2.10;;;11.70;99.90;;;;;;1888737;74;25251;-91
2023/10/03 17:01:13;;;;;;;10.70;2.53;;;11.70;99.90;;;;;;1889837;75;25362;-91
2023/10/03 17:04:02;;;;;;;7.53;2.67;;;11.70;99.90;;;;;;1916111;73;25225;-91
2023/10/03 17:06:58;;;;;;;6.87;1.90;;;11.70;99.90;;;;;;1924855;73;25211;-91
2023/10/03 17:12:28;;;;;;;5.00;2.10;;;11.50;99.90;;;;;;1965289;71;27009;-89
2023/10/03 17:15:18;;;;;;;7.37;2.10;;;11.50;99.90;;;;;;1982527;71;26503;-89
2023/10/03 17:35:33;;;;;;;8.20;2.10;;;11.50;99.90;;;;;;1916401;72;25177;-89
2023/10/03 17:38:22;;;;;;;4.03;1.90;;;11.50;99.90;;;;;;1910523;72;25773;-90
2023/10/03 17:41:11;;;;;;;6.47;2.23;;;11.60;99.90;;;;;;1910171;72;25256;-90
2023/10/03 17:44:06;;;;;;;7.13;2.33;;;11.60;99.90;;;;;;1937551;71;25192;-90
2023/10/03 17:46:58;;;;;;;5.37;2.00;;;11.60;99.90;;;;;;1939253;71;26010;-90
2023/10/03 17:49:48;;;;;;;6.80;2.10;;;11.60;99.90;;;;;;1928214;71;25231;-90
2023/10/03 17:52:39;;;;;;;5.10;2.10;;;11.60;99.90;;;;;;1931395;73;25334;-90
2023/10/03 17:55:29;;;;;;;6.50;2.33;;;11.60;99.90;;;;;;1880923;75;25293;-90
2023/10/03 18:23:37;;;;;;;7.63;2.70;;;11.60;99.90;;;;;;1904377;74;26447;-89
2023/10/03 18:29:20;;;;;;;10.57;2.90;;;11.60;99.90;;;;;;1940556;72;28227;-89
2023/10/03 18:32:10;;;;;;;11.47;3.33;;;11.50;99.90;;;;;;1918810;73;25297;-90
2023/10/03 18:34:59;;;;;;;9.47;3.10;;;11.50;99.90;;;;;;1920344;73;25223;-90
2023/10/03 18:38:15;;;;;;;16.60;3.30;;;11.50;99.90;;;;;;1922613;73;25234;-90
2023/10/03 18:41:03;;;;;;;13.10;3.10;;;11.50;99.90;;;;;;1925124;73;25808;-90
2023/10/03 18:43:54;;;;;;;10.97;2.80;;;11.60;99.90;;;;;;1898440;74;25644;-90
2023/10/03 18:46:43;;;;;;;6.83;2.43;;;11.60;99.90;;;;;;1886990;74;25239;-90
2023/10/03 18:49:32;;;;;;;10.80;2.93;;;11.60;99.90;;;;;;1885441;75;25416;-90
2023/10/03 18:52:20;;;;;;;6.67;2.63;;;11.60;99.90;;;;;;1888871;75;25256;-90
2023/10/03 18:55:11;;;;;;;10.90;3.10;;;11.60;99.90;;;;;;1897770;74;25215;-90
2023/10/03 19:11:35;;;;;;;7.63;2.53;;;11.60;99.90;;;;;;1967507;71;28128;-89
2023/10/03 19:17:33;;;;;;;9.90;2.57;;;11.70;99.90;;;;;;1947629;71;27430;-89
2023/10/03 19:20:23;;;;;;;7.03;2.17;;;11.70;99.90;;;;;;1935338;72;25253;-89
2023/10/03 19:23:19;;;;;;;10.70;2.57;;;11.60;99.90;;;;;;1935273;72;25268;-89
2023/10/03 19:26:11;;;;;;;6.37;1.90;;;11.60;99.90;;;;;;1936689;72;25241;-89
2023/10/03 19:29:00;;;;;;;13.47;2.67;;;11.60;99.90;;;;;;1945981;73;25218;-90
2023/10/03 19:31:49;;;;;;;10.70;2.20;;;11.60;99.90;;;;;;1935526;73;25798;-89
2023/10/03 19:34:40;;;;;;;12.10;2.60;;;11.60;99.90;;;;;;1908442;75;25210;-89
2023/10/03 19:37:32;;;;;;;12.90;2.70;;;11.60;99.90;;;;;;1871740;75;25817;-89
2023/10/03 19:40:21;;;;;;;8.33;2.40;;;11.60;99.90;;;;;;1864846;75;25303;-89
2023/10/03 19:43:10;;;;;;;10.73;2.23;;;11.50;99.90;;;;;;1898331;75;25783;-90
2023/10/03 19:46:02;;;;;;;6.73;2.87;;;11.50;99.90;;;;;;1892849;74;25684;-90
2023/10/03 20:02:35;;;;;;;17.57;6.20;;;11.50;99.90;;;;;;1948574;73;27121;-89
2023/10/03 20:21:39;;;;;;;18.57;5.90;;;11.40;99.90;;;;;;1935274;72;27099;-88
2023/10/03 20:27:10;;;;;;;11.40;5.40;;;11.30;99.90;;;;;;1963513;72;27032;-88
2023/10/03 20:29:59;;;;;;;16.53;5.00;;;11.30;99.90;;;;;;1933421;72;25236;-88
2023/10/03 20:32:49;;;;;;;13.80;5.37;;;11.30;99.90;;;;;;1937982;72;25253;-88
2023/10/03 20:35:37;;;;;;;11.53;4.13;;;11.20;99.90;;;;;;1925509;73;25274;-88
2023/10/03 20:38:26;;;;;;;10.77;4.60;;;11.20;99.90;;;;;;1937889;73;25278;-88
2023/10/03 20:41:14;;;;;;;15.10;4.77;;;11.20;99.90;;;;;;1927945;73;25746;-88
2023/10/03 20:44:03;;;;;;;14.80;6.00;;;11.10;99.90;;;;;;1925420;73;25262;-88
2023/10/03 20:46:52;;;;;;;18.57;5.63;;;11.20;99.90;;;;;;1870274;75;25702;-88
2023/10/03 21:04:18;;;;;;;30.07;12.93;;;11.10;99.90;;;;;;1988362;70;26546;-88
2023/10/03 21:09:48;;;;;;;33.03;13.43;;;11.20;99.90;;;;;;1932796;72;27782;-88
2023/10/03 21:15:16;;;;;;;28.50;13.10;;;11.00;99.90;;;;;;1925285;72;27112;-88
2023/10/03 21:18:07;;;;;;;26.03;7.00;;;11.10;99.90;;;;;;1911786;73;25252;-87
2023/10/03 21:20:57;;;;;;;15.73;6.23;;;11.00;99.90;;;;;;1865809;76;25351;-88
2023/10/03 21:23:46;;;;;;;23.30;6.77;;;11.10;99.90;;;;;;1861997;76;25300;-87
2023/10/03 21:26:34;;;;;;;25.30;10.13;;;11.00;99.90;;;;;;1868553;76;25599;-88
2023/10/03 21:29:24;;;;;;;33.93;14.30;;;11.00;99.90;;;;;;1831816;77;25408;-88
2023/10/03 21:32:13;;;;;;;35.97;16.70;;;10.90;99.90;;;;;;1890758;74;25286;-88
2023/10/03 21:35:02;;;;;;;39.83;17.80;;;10.90;99.90;;;;;;1896874;73;25206;-88
2023/10/03 21:37:51;;;;;;;31.47;12.93;;;10.90;99.90;;;;;;1904679;74;25655;-87
2023/10/03 21:40:41;;;;;;;30.13;12.27;;;11.00;99.90;;;;;;1908631;74;25386;-88
2023/10/03 21:43:30;;;;;;;22.03;10.20;;;11.00;99.90;;;;;;1884973;75;25693;-88
2023/10/03 21:46:18;;;;;;;22.43;7.67;;;11.00;99.90;;;;;;1897890;75;25797;-88
2023/10/03 21:49:06;;;;;;;18.77;6.03;;;11.00;99.90;;;;;;1894732;75;25694;-88
2023/10/03 21:51:55;;;;;;;18.47;6.23;;;11.00;99.90;;;;;;1903989;75;25258;-88
2023/10/03 21:57:22;;;;;;;17.13;4.63;;;11.00;99.90;;;;;;1946927;72;27192;-88
2023/10/03 22:00:34;;;;;;;14.60;4.20;;;11.00;99.90;;;;;;1930385;73;25205;-88
2023/10/03 22:03:16;;;;;;;11.83;3.57;;;11.10;99.90;;;;;;1910060;73;25285;-88
2023/10/03 22:06:05;;;;;;;24.57;5.00;;;11.00;99.90;;;;;;1937573;73;25271;-89
2023/10/03 22:08:54;;;;;;;17.60;4.00;;;11.00;99.90;;;;;;1937518;73;25742;-88
2023/10/03 22:11:42;;;;;;;15.80;6.43;;;11.00;99.90;;;;;;1941074;73;25300;-88
2023/10/03 22:14:30;;;;;;;18.10;6.43;;;11.00;99.90;;;;;;1918823;73;25244;-88
2023/10/03 22:17:18;;;;;;;19.63;6.50;;;11.00;99.90;;;;;;1913625;75;25237;-87
2023/10/03 22:20:10;;;;;;;25.47;7.43;;;11.00;99.90;;;;;;1916314;73;25708;-88
2023/10/03 22:22:59;;;;;;;23.47;8.53;;;10.90;99.90;;;;;;1911577;73;25298;-88
2023/10/03 22:25:48;;;;;;;20.27;8.80;;;11.00;99.90;;;;;;1920507;73;25315;-88
2023/10/03 22:28:36;;;;;;;25.10;5.67;;;11.00;99.90;;;;;;1935191;73;25253;-88
2023/10/03 22:31:25;;;;;;;18.10;4.90;;;11.00;99.90;;;;;;1930584;73;25243;-88
2023/10/03 22:34:13;;;;;;;15.20;4.07;;;10.90;99.90;;;;;;1937086;73;25346;-88
2023/10/03 22:37:02;;;;;;;15.43;3.90;;;10.90;99.90;;;;;;1912215;73;25251;-88
2023/10/03 22:39:51;;;;;;;17.13;6.47;;;10.90;99.90;;;;;;1920791;73;25269;-88
2023/10/03 22:42:40;;;;;;;30.53;8.80;;;10.80;99.90;;;;;;1912979;73;25684;-88
2023/10/03 22:45:29;;;;;;;29.70;10.80;;;10.80;99.90;;;;;;1891219;75;25223;-88
2023/10/03 22:48:17;;;;;;;19.77;6.23;;;10.90;99.90;;;;;;1902405;75;25689;-88
2023/10/03 22:51:06;;;;;;;17.90;6.43;;;10.90;99.90;;;;;;1898647;75;25216;-88